createdAt,value
2022-12-29T00:02:04.413Z,3.60
2022-12-29T00:04:31.062Z,4.75
2022-12-29T00:06:57.920Z,3.67
2022-12-29T00:09:24.459Z,5.97
2022-12-29T00:11:51.217Z,4.05
2022-12-29T00:14:36.202Z,3.95
2022-12-29T00:17:03.228Z,5.63
2022-12-29T00:19:52.833Z,5.20
2022-12-29T00:22:38.209Z,3.60
2022-12-29T00:25:24.129Z,4.05
2022-12-29T00:28:09.100Z,4.10
2022-12-29T00:30:55.431Z,5.63
2022-12-29T00:33:44.894Z,6.25
2022-12-29T00:36:44.744Z,4.50
2022-12-29T00:39:33.806Z,3.67
2022-12-29T00:42:26.789Z,3.72
2022-12-29T00:44:53.425Z,4.20
2022-12-29T00:47:19.951Z,5.25
2022-12-29T00:49:46.584Z,4.60
2022-12-29T00:52:13.993Z,3.78
2022-12-29T00:54:42.005Z,4.03
2022-12-29T00:57:10.356Z,3.60
2022-12-29T00:59:41.072Z,5.78
2022-12-29T01:02:08.380Z,4.63
2022-12-29T01:04:35.824Z,5.85
2022-12-29T01:07:02.363Z,5.20
2022-12-29T01:09:47.475Z,4.07
2022-12-29T01:12:14.342Z,4.57
2022-12-29T01:14:44.369Z,3.72
2022-12-29T01:17:10.869Z,5.03
2022-12-29T01:19:37.329Z,4.82
2022-12-29T01:22:03.835Z,3.83
2022-12-29T01:24:30.354Z,3.75
2022-12-29T01:26:56.845Z,3.70
2022-12-29T01:29:24.092Z,3.33
2022-12-29T01:31:51.123Z,6.15
2022-12-29T01:34:18.750Z,3.28
2022-12-29T01:36:45.336Z,6.50
2022-12-29T01:39:11.912Z,4.15
2022-12-29T01:41:38.484Z,4.57
2022-12-29T01:44:48.558Z,4.13
2022-12-29T01:47:31.551Z,5.20
2022-12-29T01:50:02.201Z,3.92
2022-12-29T01:52:32.883Z,3.72
2022-12-29T01:55:00.956Z,2.67
2022-12-29T01:57:32.413Z,5.55
2022-12-29T02:00:11.507Z,3.47
2022-12-29T02:02:38.869Z,4.45
2022-12-29T02:05:15.159Z,5.90
2022-12-29T02:07:42.425Z,5.18
2022-12-29T02:10:09.071Z,4.55
2022-12-29T02:12:35.743Z,6.18
2022-12-29T02:15:04.920Z,5.65
2022-12-29T02:18:16.405Z,4.25
2022-12-29T02:20:53.656Z,5.72
2022-12-29T02:23:44.163Z,3.95
2022-12-29T02:26:10.648Z,4.70
2022-12-29T02:28:37.063Z,3.10
2022-12-29T02:31:58.679Z,4.10
2022-12-29T02:34:34.164Z,3.85
2022-12-29T02:37:17.619Z,3.72
2022-12-29T02:40:09.715Z,7.15
2022-12-29T02:42:55.400Z,4.68
2022-12-29T02:46:00.550Z,3.25
2022-12-29T02:48:39.572Z,3.83
2022-12-29T02:51:10.708Z,5.90
2022-12-29T02:53:56.967Z,4.27
2022-12-29T02:56:23.571Z,3.47
2022-12-29T02:58:50.076Z,4.43
2022-12-29T03:01:28.338Z,4.07
2022-12-29T03:04:00.569Z,4.88
2022-12-29T03:06:53.226Z,4.28
2022-12-29T03:09:44.556Z,3.72
2022-12-29T03:12:25.010Z,3.67
2022-12-29T03:15:23.132Z,4.90
2022-12-29T03:17:55.155Z,3.97
2022-12-29T03:22:54.485Z,3.22
2022-12-29T03:25:30.038Z,4.10
2022-12-29T03:28:08.514Z,4.93
2022-12-29T03:30:36.871Z,2.83
2022-12-29T03:33:07.024Z,4.07
2022-12-29T03:35:38.251Z,3.08
2022-12-29T03:38:23.927Z,4.07
2022-12-29T03:40:56.283Z,2.67
2022-12-29T03:43:23.008Z,3.38
2022-12-29T03:45:51.458Z,3.85
2022-12-29T03:48:18.025Z,3.33
2022-12-29T03:50:46.729Z,3.80
2022-12-29T03:53:13.228Z,3.95
2022-12-29T03:55:39.756Z,2.78
2022-12-29T03:58:06.268Z,3.70
2022-12-29T04:00:32.803Z,2.85
2022-12-29T04:02:59.461Z,2.80
2022-12-29T04:05:26.125Z,2.20
2022-12-29T04:07:52.638Z,1.90
2022-12-29T04:10:19.118Z,3.33
2022-12-29T04:12:47.503Z,2.83
2022-12-29T04:15:14.257Z,2.15
2022-12-29T04:17:40.710Z,1.70
2022-12-29T04:20:26.514Z,3.47
2022-12-29T04:23:03.240Z,3.05
2022-12-29T04:25:31.031Z,4.10
2022-12-29T04:27:57.643Z,2.55
2022-12-29T04:30:24.402Z,1.83
2022-12-29T04:32:50.849Z,2.88
2022-12-29T04:35:17.420Z,1.70
2022-12-29T04:37:44.952Z,2.30
2022-12-29T04:40:12.078Z,4.97
2022-12-29T04:42:38.683Z,2.90
2022-12-29T04:45:05.649Z,1.98
2022-12-29T04:47:32.115Z,3.58
2022-12-29T04:49:58.548Z,2.35
2022-12-29T04:52:25.048Z,2.28
2022-12-29T04:54:51.515Z,2.85
2022-12-29T04:57:19.303Z,2.13
2022-12-29T04:59:45.830Z,1.73
2022-12-29T05:02:12.414Z,3.30
2022-12-29T05:04:39.029Z,3.80
2022-12-29T05:07:05.484Z,4.38
2022-12-29T05:09:31.975Z,4.45
2022-12-29T05:11:58.445Z,2.28
2022-12-29T05:14:24.958Z,2.53
2022-12-29T05:16:51.512Z,2.38
2022-12-29T05:19:18.186Z,1.80
2022-12-29T05:21:45.107Z,2.47
2022-12-29T05:24:11.644Z,3.45
2022-12-29T05:26:38.154Z,2.53
2022-12-29T05:29:04.679Z,1.55
2022-12-29T05:31:31.271Z,2.78
2022-12-29T05:33:57.736Z,1.77
2022-12-29T05:36:24.345Z,2.10
2022-12-29T05:38:50.839Z,2.95
2022-12-29T05:41:17.644Z,1.15
2022-12-29T05:43:44.755Z,2.97
2022-12-29T05:46:11.353Z,2.25
2022-12-29T05:48:38.422Z,3.60
2022-12-29T05:51:05.148Z,1.40
2022-12-29T05:53:31.767Z,1.70
2022-12-29T05:55:58.299Z,1.90
2022-12-29T05:58:24.849Z,1.58
2022-12-29T06:00:52.198Z,1.67
2022-12-29T06:03:18.830Z,1.98
2022-12-29T06:05:47.027Z,1.10
2022-12-29T06:08:13.800Z,1.73
2022-12-29T06:10:40.703Z,1.48
2022-12-29T06:13:07.433Z,1.20
2022-12-29T06:15:34.924Z,1.73
2022-12-29T06:18:01.617Z,1.40
2022-12-29T06:20:28.661Z,1.63
2022-12-29T06:22:55.133Z,1.70
2022-12-29T06:25:21.679Z,1.02
2022-12-29T06:27:48.207Z,1.10
2022-12-29T06:30:15.799Z,1.90
2022-12-29T06:32:42.491Z,1.38
2022-12-29T06:35:09.797Z,1.50
2022-12-29T06:37:36.524Z,2.33
2022-12-29T06:40:03.104Z,1.17
2022-12-29T06:42:31.575Z,1.10
2022-12-29T06:44:59.841Z,2.92
2022-12-29T06:47:26.422Z,1.92
2022-12-29T06:49:52.943Z,2.05
2022-12-29T06:52:19.589Z,2.28
2022-12-29T06:54:46.102Z,1.00
2022-12-29T06:57:12.832Z,1.10
2022-12-29T06:59:39.433Z,1.08
2022-12-29T07:02:22.846Z,3.05
2022-12-29T07:04:50.529Z,1.63
2022-12-29T07:07:22.949Z,2.03
2022-12-29T07:09:49.387Z,0.90
2022-12-29T07:12:15.985Z,1.02
2022-12-29T07:14:43.690Z,1.42
2022-12-29T07:17:10.546Z,1.05
2022-12-29T07:19:37.152Z,1.00
2022-12-29T07:22:03.613Z,1.13
2022-12-29T07:24:30.849Z,1.10
2022-12-29T07:26:57.468Z,0.85
2022-12-29T07:29:24.205Z,1.83
2022-12-29T07:31:50.734Z,1.20
2022-12-29T07:34:18.489Z,0.90
2022-12-29T07:36:45.079Z,1.63
2022-12-29T07:39:12.620Z,1.23
2022-12-29T07:41:39.093Z,1.50
2022-12-29T07:44:08.367Z,2.55
2022-12-29T07:46:54.237Z,1.10
2022-12-29T07:49:21.322Z,5.35
2022-12-29T07:51:47.801Z,2.03
2022-12-29T07:54:14.308Z,1.67
2022-12-29T07:56:41.426Z,0.98
2022-12-29T07:59:07.911Z,1.38
2022-12-29T08:01:34.591Z,2.53
2022-12-29T08:04:01.207Z,1.65
2022-12-29T08:06:31.701Z,2.55
2022-12-29T08:09:01.535Z,1.38
2022-12-29T08:11:30.757Z,1.50
2022-12-29T08:13:57.255Z,1.73
2022-12-29T08:16:23.725Z,4.53
2022-12-29T08:18:50.262Z,3.38
2022-12-29T08:21:16.740Z,1.25
2022-12-29T08:23:43.252Z,2.35
2022-12-29T08:26:11.394Z,4.68
2022-12-29T08:28:38.140Z,1.40
2022-12-29T08:31:04.791Z,3.13
2022-12-29T08:33:31.519Z,1.55
2022-12-29T08:36:02.810Z,2.15
2022-12-29T08:38:29.972Z,2.90
2022-12-29T08:40:57.814Z,2.80
2022-12-29T08:43:25.139Z,3.08
2022-12-29T08:45:52.015Z,2.85
2022-12-29T08:48:20.606Z,5.40
2022-12-29T08:50:47.697Z,2.80
2022-12-29T08:53:14.232Z,3.00
2022-12-29T08:55:40.810Z,3.17
2022-12-29T08:58:07.314Z,2.45
2022-12-29T09:00:33.900Z,2.55
2022-12-29T09:03:00.551Z,2.40
2022-12-29T09:05:27.141Z,2.30
2022-12-29T09:07:53.612Z,1.40
2022-12-29T09:10:20.223Z,2.95
2022-12-29T09:12:46.977Z,3.95
2022-12-29T09:15:13.844Z,2.00
2022-12-29T09:17:46.564Z,3.60
2022-12-29T09:20:15.021Z,2.30
2022-12-29T09:22:42.181Z,2.38
2022-12-29T09:25:10.116Z,1.75
2022-12-29T09:27:37.159Z,3.47
2022-12-29T09:30:10.365Z,1.52
2022-12-29T09:32:41.942Z,1.42
2022-12-29T09:35:12.573Z,1.35
2022-12-29T09:37:39.334Z,2.97
2022-12-29T09:40:07.427Z,1.55
2022-12-29T09:43:12.128Z,1.48
2022-12-29T09:45:50.824Z,3.15
2022-12-29T09:48:21.283Z,2.00
2022-12-29T09:50:56.440Z,1.77
2022-12-29T09:53:31.031Z,1.33
2022-12-29T09:56:01.083Z,1.70
2022-12-29T09:58:42.463Z,2.40
2022-12-29T10:01:23.128Z,1.00
2022-12-29T10:03:52.674Z,3.15
2022-12-29T10:07:28.546Z,1.63
2022-12-29T10:10:03.670Z,1.20
2022-12-29T10:13:00.997Z,1.63
2022-12-29T10:15:42.858Z,2.58
2022-12-29T10:18:46.155Z,1.88
2022-12-29T10:21:58.876Z,2.28
2022-12-29T10:24:27.668Z,2.03
2022-12-29T10:26:56.568Z,1.48
2022-12-29T10:29:34.758Z,1.38
2022-12-29T10:32:06.781Z,1.15
2022-12-29T10:34:46.011Z,2.22
2022-12-29T10:37:18.318Z,1.70
2022-12-29T10:39:56.280Z,3.80
2022-12-29T10:42:27.605Z,1.48
2022-12-29T10:44:59.492Z,1.45
2022-12-29T10:49:56.321Z,3.50
2022-12-29T10:52:24.375Z,3.30
2022-12-29T10:54:54.789Z,1.85
2022-12-29T10:57:33.796Z,6.97
2022-12-29T11:00:00.423Z,2.05
2022-12-29T11:02:45.382Z,2.00
2022-12-29T11:05:29.745Z,2.88
2022-12-29T11:08:02.424Z,4.07
2022-12-29T11:10:39.764Z,2.65
2022-12-29T11:13:16.933Z,3.72
2022-12-29T11:15:49.541Z,5.38
2022-12-29T11:18:22.862Z,3.55
2022-12-29T11:20:52.228Z,3.45
2022-12-29T11:23:41.364Z,3.42
2022-12-29T11:26:17.752Z,3.08
2022-12-29T11:29:05.127Z,2.22
2022-12-29T11:31:31.783Z,2.08
2022-12-29T11:33:58.276Z,2.35
2022-12-29T11:36:25.702Z,2.20
2022-12-29T11:38:55.524Z,2.65
2022-12-29T11:41:32.159Z,4.20
2022-12-29T11:44:02.208Z,5.28
2022-12-29T11:46:32.508Z,4.28
2022-12-29T11:49:01.497Z,2.30
2022-12-29T11:51:31.390Z,2.40
2022-12-29T11:54:00.956Z,3.00
2022-12-29T11:56:42.234Z,4.45
2022-12-29T11:59:39.667Z,2.90
2022-12-29T12:02:21.626Z,3.25
2022-12-29T12:04:52.027Z,2.63
2022-12-29T12:07:28.366Z,4.50
2022-12-29T12:10:06.569Z,3.60
2022-12-29T12:12:36.806Z,3.67
2022-12-29T12:15:04.586Z,3.15
2022-12-29T12:17:40.947Z,3.47
2022-12-29T12:20:28.650Z,10.43
2022-12-29T12:23:21.816Z,3.72
2022-12-29T12:26:06.557Z,3.42
2022-12-29T12:28:43.191Z,6.22
2022-12-29T12:31:36.812Z,5.10
2022-12-29T12:34:10.196Z,4.10
2022-12-29T12:37:01.705Z,4.95
2022-12-29T12:39:48.975Z,4.72
2022-12-29T12:42:25.229Z,4.90
2022-12-29T12:44:57.647Z,5.63
2022-12-29T12:47:46.338Z,2.75
2022-12-29T12:50:36.384Z,4.15
2022-12-29T12:53:21.653Z,3.28
2022-12-29T12:56:14.331Z,4.45
2022-12-29T12:58:58.373Z,5.75
2022-12-29T13:01:53.444Z,4.90
2022-12-29T13:04:38.722Z,3.13
2022-12-29T13:07:45.273Z,5.32
2022-12-29T13:10:24.296Z,4.30
2022-12-29T13:12:53.725Z,4.38
2022-12-29T13:15:47.713Z,6.43
2022-12-29T13:18:32.971Z,5.35
2022-12-29T13:21:25.316Z,3.30
2022-12-29T13:26:36.692Z,5.03
2022-12-29T13:29:50.536Z,3.65
2022-12-29T13:32:45.721Z,4.85
2022-12-29T13:35:27.513Z,4.00
2022-12-29T13:37:59.804Z,5.07
2022-12-29T13:40:31.000Z,3.47
2022-12-29T13:42:58.519Z,5.20
2022-12-29T13:45:29.827Z,6.68
2022-12-29T13:48:01.204Z,6.45
2022-12-29T13:50:30.993Z,3.17
2022-12-29T13:52:57.401Z,4.82
2022-12-29T13:55:30.923Z,3.28
2022-12-29T13:58:32.665Z,5.90
2022-12-29T14:01:12.737Z,3.17
2022-12-29T14:03:49.954Z,2.55
2022-12-29T14:06:20.164Z,6.63
2022-12-29T14:08:49.043Z,3.67
2022-12-29T14:11:17.832Z,6.22
2022-12-29T14:13:47.123Z,6.47
2022-12-29T14:16:34.581Z,4.20
2022-12-29T14:19:35.260Z,5.72
2022-12-29T14:22:05.501Z,5.45
2022-12-29T14:24:40.883Z,4.30
2022-12-29T14:27:10.464Z,9.25
2022-12-29T14:29:39.878Z,5.90
2022-12-29T14:32:26.647Z,10.95
2022-12-29T14:34:58.675Z,10.55
2022-12-29T14:40:15.537Z,22.98
2022-12-29T14:42:43.121Z,7.13
2022-12-29T14:45:30.841Z,7.13
2022-12-29T14:47:57.948Z,6.43
2022-12-29T14:50:42.138Z,7.45
2022-12-29T14:53:48.678Z,6.93
2022-12-29T14:56:18.450Z,8.43
2022-12-29T14:58:47.855Z,6.30
2022-12-29T15:01:40.341Z,9.00
2022-12-29T15:04:23.935Z,8.70
2022-12-29T15:06:51.305Z,8.35
2022-12-29T15:09:37.351Z,6.40
2022-12-29T15:12:30.090Z,7.35
2022-12-29T15:14:59.165Z,4.43
2022-12-29T15:17:33.791Z,5.50
2022-12-29T15:20:02.908Z,7.78
2022-12-29T15:22:31.371Z,5.43
2022-12-29T15:24:58.852Z,7.63
2022-12-29T15:27:27.101Z,6.15
2022-12-29T15:30:02.917Z,4.85
2022-12-29T15:32:39.552Z,7.78
2022-12-29T15:35:24.203Z,5.28
2022-12-29T15:37:50.716Z,6.45
2022-12-29T15:40:25.304Z,8.75
2022-12-29T15:43:19.093Z,4.03
2022-12-29T15:45:45.829Z,8.05
2022-12-29T15:48:19.314Z,6.75
2022-12-29T15:50:47.075Z,5.32
2022-12-29T15:53:25.523Z,11.18
2022-12-29T15:55:55.874Z,9.90
2022-12-29T15:58:27.892Z,9.30
2022-12-29T16:01:04.300Z,4.93
2022-12-29T16:03:37.347Z,8.35
2022-12-29T16:06:26.003Z,4.95
2022-12-29T16:09:07.734Z,5.30
2022-12-29T16:11:38.715Z,5.43
2022-12-29T16:14:18.087Z,4.40
2022-12-29T16:16:48.251Z,5.88
2022-12-29T16:19:27.649Z,7.53
2022-12-29T16:22:23.027Z,7.57
2022-12-29T16:24:49.726Z,6.10
2022-12-29T16:27:42.540Z,5.95
2022-12-29T16:30:18.753Z,11.57
2022-12-29T16:32:50.672Z,6.15
2022-12-29T16:35:31.093Z,5.40
2022-12-29T16:38:17.248Z,9.98
2022-12-29T16:41:04.309Z,10.18
2022-12-29T16:43:32.604Z,5.75
2022-12-29T16:45:59.131Z,6.70
2022-12-29T16:48:39.557Z,6.30
2022-12-29T16:51:14.870Z,6.82
2022-12-29T16:53:48.113Z,7.90
2022-12-29T16:56:21.173Z,3.60
2022-12-29T16:58:56.999Z,4.80
2022-12-29T17:01:26.691Z,16.45
2022-12-29T17:03:56.507Z,9.65
2022-12-29T17:06:23.831Z,38.25
2022-12-29T17:08:51.887Z,14.65
2022-12-29T17:11:43.421Z,12.93
2022-12-29T17:14:22.513Z,28.70
2022-12-29T17:16:52.389Z,88.78
2022-12-29T17:19:31.659Z,15.23
2022-12-29T17:21:58.183Z,8.52
2022-12-29T17:24:24.720Z,7.75
2022-12-29T17:26:54.772Z,5.10
2022-12-29T17:29:33.632Z,12.05
2022-12-29T17:32:01.630Z,5.57
2022-12-29T17:34:28.262Z,9.75
2022-12-29T17:36:57.819Z,7.30
2022-12-29T17:39:24.453Z,6.15
2022-12-29T17:41:57.026Z,7.35
2022-12-29T17:44:26.718Z,8.32
2022-12-29T17:46:53.228Z,8.43
2022-12-29T17:49:19.762Z,24.17
2022-12-29T17:51:47.712Z,18.63
2022-12-29T17:54:23.711Z,39.60
2022-12-29T17:56:50.373Z,47.72
2022-12-29T17:59:17.453Z,21.40
2022-12-29T18:01:46.010Z,8.13
2022-12-29T18:04:20.363Z,7.25
2022-12-29T18:06:47.852Z,8.55
2022-12-29T18:09:14.869Z,9.15
2022-12-29T18:11:43.404Z,9.57
2022-12-29T18:14:17.183Z,4.63
2022-12-29T18:16:44.271Z,9.80
2022-12-29T18:19:12.041Z,5.53
2022-12-29T18:21:41.625Z,9.50
2022-12-29T18:24:14.885Z,12.50
2022-12-29T18:26:41.835Z,11.35
2022-12-29T18:29:08.409Z,7.93
2022-12-29T18:31:36.539Z,9.13
2022-12-29T18:34:13.126Z,9.70
2022-12-29T18:36:45.545Z,9.63
2022-12-29T18:39:12.124Z,7.75
2022-12-29T18:41:38.603Z,8.70
2022-12-29T18:44:05.243Z,7.72
2022-12-29T18:46:31.867Z,13.13
2022-12-29T18:48:58.549Z,14.82
2022-12-29T18:51:26.554Z,7.70
2022-12-29T18:53:56.592Z,7.80
2022-12-29T18:56:27.268Z,8.35
2022-12-29T18:58:57.041Z,7.28
2022-12-29T19:01:27.657Z,11.13
2022-12-29T19:03:57.621Z,8.38
2022-12-29T19:06:24.136Z,6.60
2022-12-29T19:08:50.578Z,6.47
2022-12-29T19:11:17.839Z,9.45
2022-12-29T19:13:44.393Z,6.47
2022-12-29T19:16:20.330Z,7.05
2022-12-29T19:18:58.120Z,7.30
2022-12-29T19:21:30.511Z,6.03
2022-12-29T19:23:57.480Z,8.85
2022-12-29T19:26:34.390Z,7.80
2022-12-29T19:29:01.052Z,7.90
2022-12-29T19:31:27.961Z,7.35
2022-12-29T19:33:54.818Z,7.80
2022-12-29T19:36:21.994Z,6.00
2022-12-29T19:38:48.879Z,7.97
2022-12-29T19:41:15.708Z,4.45
2022-12-29T19:43:45.179Z,6.65
2022-12-29T19:46:16.849Z,6.03
2022-12-29T19:48:43.737Z,7.70
2022-12-29T19:51:13.565Z,9.00
2022-12-29T19:53:40.061Z,6.30
2022-12-29T19:56:08.639Z,8.52
2022-12-29T19:58:43.844Z,8.18
2022-12-29T20:01:16.255Z,7.75
2022-12-29T20:03:43.330Z,6.53
2022-12-29T20:06:14.507Z,9.90
2022-12-29T20:08:41.196Z,7.57
2022-12-29T20:11:13.585Z,8.68
2022-12-29T20:13:40.713Z,9.13
2022-12-29T20:16:11.309Z,9.15
2022-12-29T20:18:41.233Z,8.73
2022-12-29T20:21:12.024Z,7.00
2022-12-29T20:23:42.616Z,7.80
2022-12-29T20:26:13.888Z,10.27
2022-12-29T20:28:40.656Z,10.23
2022-12-29T20:31:14.697Z,7.07
2022-12-29T20:33:41.735Z,5.70
2022-12-29T20:36:20.250Z,8.38
2022-12-29T20:38:47.697Z,7.45
2022-12-29T20:41:14.711Z,10.68
2022-12-29T20:43:41.957Z,5.55
2022-12-29T20:46:09.344Z,11.93
2022-12-29T20:48:36.081Z,7.25
2022-12-29T20:51:02.591Z,6.82
2022-12-29T20:53:33.655Z,10.50
2022-12-29T20:56:04.098Z,8.97
2022-12-29T20:58:31.170Z,11.30
2022-12-29T21:01:02.871Z,7.03
2022-12-29T21:03:30.125Z,6.35
2022-12-29T21:05:56.695Z,10.80
2022-12-29T21:08:23.914Z,8.02
2022-12-29T21:10:51.655Z,8.27
2022-12-29T21:13:18.993Z,10.23
2022-12-29T21:15:46.688Z,9.80
2022-12-29T21:18:13.846Z,10.40
2022-12-29T21:20:44.312Z,10.32
2022-12-29T21:23:10.800Z,8.50
2022-12-29T21:25:42.931Z,7.82
2022-12-29T21:28:13.333Z,10.88
2022-12-29T21:30:40.259Z,10.02
2022-12-29T21:33:09.818Z,7.88
2022-12-29T21:35:39.295Z,8.57
2022-12-29T21:38:09.272Z,11.60
2022-12-29T21:40:46.259Z,11.05
2022-12-29T21:43:14.449Z,9.93
2022-12-29T21:45:40.998Z,7.82
2022-12-29T21:48:24.136Z,6.75
2022-12-29T21:51:12.717Z,11.05
2022-12-29T21:53:42.625Z,11.82
2022-12-29T21:56:18.217Z,12.50
2022-12-29T21:59:08.191Z,9.82
2022-12-29T22:01:56.673Z,9.00
2022-12-29T22:04:44.123Z,7.43
2022-12-29T22:07:33.702Z,13.68
2022-12-29T22:10:18.361Z,12.40
2022-12-29T22:13:03.405Z,10.90
2022-12-29T22:15:35.945Z,14.23
2022-12-29T22:18:03.392Z,11.27
2022-12-29T22:20:32.511Z,12.02
2022-12-29T22:22:59.473Z,10.40
2022-12-29T22:25:26.451Z,13.68
2022-12-29T22:27:58.941Z,11.10
2022-12-29T22:30:31.003Z,12.07
2022-12-29T22:32:58.584Z,7.43
2022-12-29T22:35:32.017Z,10.38
2022-12-29T22:38:02.128Z,14.95
2022-12-29T22:40:28.669Z,8.95
2022-12-29T22:42:55.175Z,10.07
2022-12-29T22:45:21.868Z,8.43
2022-12-29T22:47:49.754Z,15.05
2022-12-29T22:50:16.229Z,12.68
2022-12-29T22:52:42.705Z,13.05
2022-12-29T22:55:12.690Z,12.70
2022-12-29T22:57:39.220Z,12.15
2022-12-29T23:00:08.479Z,9.93
2022-12-29T23:02:35.294Z,13.50
2022-12-29T23:05:04.387Z,13.00
2022-12-29T23:07:32.604Z,9.80
2022-12-29T23:09:59.119Z,15.13
2022-12-29T23:12:31.407Z,11.50
2022-12-29T23:15:02.160Z,12.60
2022-12-29T23:17:30.654Z,12.70
2022-12-29T23:19:57.176Z,14.90
2022-12-29T23:22:24.919Z,12.45
2022-12-29T23:24:51.437Z,11.55
2022-12-29T23:27:18.074Z,14.52
2022-12-29T23:29:44.566Z,9.38
2022-12-29T23:32:11.147Z,13.85
2022-12-29T23:34:37.923Z,18.30
2022-12-29T23:37:05.042Z,12.25
2022-12-29T23:39:31.498Z,13.90
2022-12-29T23:41:58.098Z,11.38
2022-12-29T23:44:24.598Z,13.48
2022-12-29T23:46:51.228Z,13.02
2022-12-29T23:49:17.710Z,14.95
2022-12-29T23:51:44.262Z,10.25
2022-12-29T23:54:14.017Z,11.93
2022-12-29T23:56:40.493Z,10.20
2022-12-29T23:59:06.966Z,17.60
